createdAt,value
2022-08-27T00:01:57.904Z,45.75
2022-08-27T00:04:25.931Z,45.54
2022-08-27T00:06:54.010Z,44.74
2022-08-27T00:09:27.081Z,45.26
2022-08-27T00:11:56.229Z,45.06
2022-08-27T00:14:25.868Z,45.17
2022-08-27T00:16:54.101Z,45.07
2022-08-27T00:19:22.334Z,45.02
2022-08-27T00:21:50.127Z,45.18
2022-08-27T00:24:17.945Z,45.45
2022-08-27T00:26:46.192Z,45.20
2022-08-27T00:29:13.999Z,45.06
2022-08-27T00:31:41.844Z,45.57
2022-08-27T00:34:13.145Z,45.09
2022-08-27T00:36:42.152Z,44.74
2022-08-27T00:39:10.247Z,44.04
2022-08-27T00:41:39.394Z,44.59
2022-08-27T00:44:07.728Z,44.48
2022-08-27T00:46:57.753Z,43.75
2022-08-27T00:49:28.987Z,43.31
2022-08-27T00:52:00.613Z,43.48
2022-08-27T00:54:28.545Z,42.81
2022-08-27T00:56:56.548Z,42.25
2022-08-27T00:59:25.899Z,41.54
2022-08-27T01:02:12.690Z,41.62
2022-08-27T01:04:42.203Z,41.76
2022-08-27T01:07:10.592Z,41.46
2022-08-27T01:09:39.079Z,41.84
2022-08-27T01:12:07.094Z,41.80
2022-08-27T01:14:35.866Z,41.51
2022-08-27T01:17:04.263Z,41.72
2022-08-27T01:19:46.233Z,41.59
2022-08-27T01:22:23.390Z,41.63
2022-08-27T01:24:52.693Z,41.39
2022-08-27T01:27:23.594Z,41.20
2022-08-27T01:29:51.501Z,41.20
2022-08-27T01:32:44.516Z,41.49
2022-08-27T01:35:13.834Z,41.19
2022-08-27T01:37:42.260Z,40.83
2022-08-27T01:40:10.741Z,41.47
2022-08-27T01:42:43.101Z,41.59
2022-08-27T01:45:17.878Z,41.91
2022-08-27T01:47:46.289Z,40.68
2022-08-27T01:50:21.703Z,41.14
2022-08-27T01:52:50.860Z,41.10
2022-08-27T01:55:21.388Z,41.20
2022-08-27T01:57:49.610Z,41.19
2022-08-27T02:00:24.193Z,41.26
2022-08-27T02:02:52.308Z,41.19
2022-08-27T02:05:20.226Z,41.57
2022-08-27T02:07:48.459Z,41.54
2022-08-27T02:10:20.863Z,41.75
2022-08-27T02:12:49.896Z,41.62
2022-08-27T02:15:20.547Z,41.40
2022-08-27T02:17:48.897Z,41.42
2022-08-27T02:20:18.018Z,41.23
2022-08-27T02:22:46.440Z,41.31
2022-08-27T02:25:16.695Z,41.32
2022-08-27T02:27:45.675Z,41.42
2022-08-27T02:30:16.071Z,41.42
2022-08-27T02:32:47.560Z,41.52
2022-08-27T02:35:17.616Z,41.52
2022-08-27T02:37:46.478Z,41.70
2022-08-27T02:40:17.836Z,40.97
2022-08-27T02:42:46.326Z,41.35
2022-08-27T02:45:14.432Z,41.33
2022-08-27T02:47:42.451Z,41.44
2022-08-27T02:50:11.259Z,41.84
2022-08-27T02:52:38.963Z,42.08
2022-08-27T02:55:07.164Z,41.72
2022-08-27T02:57:36.801Z,42.08
2022-08-27T03:00:08.577Z,42.24
2022-08-27T03:02:37.349Z,42.43
2022-08-27T03:05:06.595Z,42.71
2022-08-27T03:07:35.653Z,42.26
2022-08-27T03:10:04.833Z,41.95
2022-08-27T03:12:36.233Z,42.19
2022-08-27T03:15:06.455Z,42.46
2022-08-27T03:17:53.088Z,42.30
2022-08-27T03:20:21.245Z,42.33
2022-08-27T03:22:49.588Z,41.93
2022-08-27T03:25:18.361Z,42.19
2022-08-27T03:27:46.988Z,41.64
2022-08-27T03:30:17.996Z,41.83
2022-08-27T03:32:47.364Z,41.83
2022-08-27T03:35:15.610Z,42.25
2022-08-27T03:37:43.927Z,42.19
2022-08-27T03:40:13.488Z,42.18
2022-08-27T03:42:42.797Z,42.15
2022-08-27T03:45:11.669Z,42.36
2022-08-27T03:47:39.713Z,42.10
2022-08-27T03:50:08.416Z,42.07
2022-08-27T03:52:36.965Z,41.75
2022-08-27T03:55:06.124Z,41.96
2022-08-27T03:57:34.208Z,42.51
2022-08-27T04:00:02.289Z,42.23
2022-08-27T04:02:41.673Z,42.73
2022-08-27T04:05:11.651Z,43.37
2022-08-27T04:07:41.222Z,43.03
2022-08-27T04:10:10.491Z,43.41
2022-08-27T04:12:38.974Z,44.55
2022-08-27T04:15:10.840Z,44.13
2022-08-27T04:17:40.163Z,44.09
2022-08-27T04:20:33.995Z,44.45
2022-08-27T04:22:57.237Z,43.57
2022-08-27T04:25:25.168Z,43.40
2022-08-27T04:27:54.004Z,43.80
2022-08-27T04:30:21.950Z,43.36
2022-08-27T04:32:50.851Z,42.93
2022-08-27T04:35:18.675Z,42.60
2022-08-27T04:37:46.856Z,42.55
2022-08-27T04:40:14.762Z,42.16
2022-08-27T04:42:42.905Z,41.56
2022-08-27T04:45:11.119Z,41.95
2022-08-27T04:47:39.292Z,41.58
2022-08-27T04:50:07.537Z,41.69
2022-08-27T04:52:41.076Z,41.64
2022-08-27T04:55:10.404Z,40.60
2022-08-27T04:57:38.324Z,41.26
2022-08-27T05:00:08.755Z,40.74
2022-08-27T05:02:36.910Z,39.79
2022-08-27T05:05:05.059Z,39.80
2022-08-27T05:07:33.036Z,39.23
2022-08-27T05:10:00.983Z,39.56
2022-08-27T05:12:28.568Z,39.36
2022-08-27T05:14:56.446Z,39.13
2022-08-27T05:17:24.654Z,38.50
2022-08-27T05:19:53.072Z,37.45
2022-08-27T05:22:21.491Z,37.20
2022-08-27T05:24:50.262Z,36.84
2022-08-27T05:27:18.510Z,37.70
2022-08-27T05:29:46.440Z,37.89
2022-08-27T05:32:14.357Z,38.32
2022-08-27T05:34:42.424Z,37.59
2022-08-27T05:37:10.775Z,37.13
2022-08-27T05:39:38.660Z,36.82
2022-08-27T05:42:07.756Z,37.31
2022-08-27T05:44:43.235Z,37.66
2022-08-27T05:47:11.017Z,36.84
2022-08-27T05:49:41.741Z,36.22
2022-08-27T05:52:15.467Z,36.46
2022-08-27T05:54:50.163Z,36.75
2022-08-27T05:57:18.880Z,38.69
2022-08-27T06:00:05.938Z,36.34
2022-08-27T06:02:51.255Z,36.82
2022-08-27T06:05:21.089Z,36.52
2022-08-27T06:07:50.085Z,36.43
2022-08-27T06:10:24.009Z,35.57
2022-08-27T06:12:56.842Z,35.76
2022-08-27T06:15:24.868Z,35.55
2022-08-27T06:17:53.635Z,35.95
2022-08-27T06:20:22.251Z,35.10
2022-08-27T06:22:50.107Z,36.17
2022-08-27T06:25:17.863Z,36.24
2022-08-27T06:27:45.426Z,35.63
2022-08-27T06:30:17.331Z,36.12
2022-08-27T06:32:45.681Z,34.90
2022-08-27T06:35:13.420Z,35.71
2022-08-27T06:37:41.047Z,36.13
2022-08-27T06:40:10.916Z,34.76
2022-08-27T06:42:38.879Z,36.34
2022-08-27T06:45:08.412Z,33.74
2022-08-27T06:47:36.495Z,34.28
2022-08-27T06:50:04.754Z,34.03
2022-08-27T06:52:32.986Z,33.33
2022-08-27T06:55:01.849Z,32.27
2022-08-27T06:57:31.489Z,34.31
2022-08-27T07:00:00.060Z,32.85
2022-08-27T07:02:29.937Z,31.79
2022-08-27T07:04:57.972Z,31.91
2022-08-27T07:07:36.481Z,31.36
2022-08-27T07:10:10.482Z,31.97
2022-08-27T07:12:43.658Z,31.94
2022-08-27T07:15:12.782Z,31.29
2022-08-27T07:17:44.852Z,32.34
2022-08-27T07:20:13.443Z,31.98
2022-08-27T07:22:42.193Z,32.19
2022-08-27T07:25:13.031Z,31.10
2022-08-27T07:27:42.108Z,32.16
2022-08-27T07:30:12.580Z,31.75
2022-08-27T07:32:43.853Z,30.82
2022-08-27T07:35:15.501Z,30.48
2022-08-27T07:37:44.297Z,29.54
2022-08-27T07:40:16.237Z,29.58
2022-08-27T07:43:02.587Z,29.66
2022-08-27T07:45:37.018Z,29.29
2022-08-27T07:48:05.255Z,29.65
2022-08-27T07:50:33.804Z,28.86
2022-08-27T07:53:05.795Z,30.24
2022-08-27T07:55:39.727Z,29.65
2022-08-27T07:58:11.594Z,29.78
2022-08-27T08:00:47.285Z,29.94
2022-08-27T08:03:16.279Z,29.18
2022-08-27T08:05:55.344Z,29.26
2022-08-27T08:08:25.039Z,29.77
2022-08-27T08:11:06.642Z,30.03
2022-08-27T08:13:43.970Z,30.52
2022-08-27T08:16:13.110Z,33.41
2022-08-27T08:18:42.031Z,29.17
2022-08-27T08:21:13.541Z,30.20
2022-08-27T08:23:42.955Z,30.65
2022-08-27T08:26:12.860Z,30.00
2022-08-27T08:28:41.116Z,29.85
2022-08-27T08:31:09.299Z,31.45
2022-08-27T08:33:37.785Z,29.87
2022-08-27T08:36:13.283Z,30.54
2022-08-27T08:38:41.567Z,28.92
2022-08-27T08:41:35.234Z,29.77
2022-08-27T08:44:06.839Z,29.65
2022-08-27T08:46:39.951Z,28.52
2022-08-27T08:49:16.565Z,29.99
2022-08-27T08:51:48.504Z,29.18
2022-08-27T08:54:20.781Z,29.59
2022-08-27T08:56:57.592Z,28.56
2022-08-27T08:59:43.272Z,28.01
2022-08-27T09:02:15.912Z,28.32
2022-08-27T09:04:43.972Z,28.76
2022-08-27T09:07:37.228Z,30.45
2022-08-27T09:10:11.350Z,28.08
2022-08-27T09:12:40.075Z,28.42
2022-08-27T09:15:12.413Z,27.54
2022-08-27T09:17:42.549Z,28.47
2022-08-27T09:20:25.553Z,28.83
2022-08-27T09:23:24.892Z,29.53
2022-08-27T09:25:53.992Z,28.12
2022-08-27T09:28:43.691Z,29.35
2022-08-27T09:31:19.420Z,28.25
2022-08-27T09:33:56.240Z,28.13
2022-08-27T09:36:25.843Z,28.51
2022-08-27T09:38:59.434Z,27.89
2022-08-27T09:41:29.908Z,27.91
2022-08-27T09:44:01.642Z,28.13
2022-08-27T09:46:29.841Z,27.71
2022-08-27T09:48:57.644Z,28.14
2022-08-27T09:51:28.158Z,27.86
2022-08-27T09:53:58.640Z,27.64
2022-08-27T09:56:42.326Z,28.63
2022-08-27T09:59:12.414Z,28.47
2022-08-27T10:01:54.955Z,28.77
2022-08-27T10:04:51.083Z,30.23
2022-08-27T10:07:38.883Z,30.70
2022-08-27T10:10:25.834Z,28.83
2022-08-27T10:12:58.749Z,31.35
2022-08-27T10:15:30.512Z,29.02
2022-08-27T10:18:08.514Z,28.54
2022-08-27T10:20:45.033Z,28.37
2022-08-27T10:23:31.571Z,28.09
2022-08-27T10:26:12.926Z,29.33
2022-08-27T10:29:05.212Z,28.82
2022-08-27T10:31:54.324Z,30.29
2022-08-27T10:34:28.891Z,29.11
2022-08-27T10:37:21.630Z,29.13
2022-08-27T10:40:25.422Z,29.34
2022-08-27T10:43:32.724Z,30.16
2022-08-27T10:46:06.382Z,29.01
2022-08-27T10:48:35.140Z,28.61
2022-08-27T10:51:28.924Z,28.17
2022-08-27T10:54:31.991Z,31.38
2022-08-27T10:57:53.214Z,29.45
2022-08-27T11:00:17.750Z,28.41
2022-08-27T11:02:58.815Z,30.03
2022-08-27T11:05:26.343Z,28.94
2022-08-27T11:08:08.147Z,29.68
2022-08-27T11:10:38.928Z,31.17
2022-08-27T11:13:10.704Z,30.24
2022-08-27T11:15:40.836Z,32.11
2022-08-27T11:18:41.392Z,33.58
2022-08-27T11:21:12.227Z,31.80
2022-08-27T11:23:44.280Z,31.91
2022-08-27T11:26:13.910Z,31.55
2022-08-27T11:29:00.649Z,29.29
2022-08-27T11:31:44.090Z,30.29
2022-08-27T11:34:28.266Z,29.96
2022-08-27T11:37:14.517Z,29.55
2022-08-27T11:39:51.714Z,29.59
2022-08-27T11:42:41.480Z,28.49
2022-08-27T11:45:16.972Z,30.91
2022-08-27T11:47:58.369Z,29.34
2022-08-27T11:50:29.034Z,25.23
2022-08-27T11:53:06.531Z,24.82
2022-08-27T11:55:39.014Z,26.20
2022-08-27T11:58:18.013Z,26.06
2022-08-27T12:00:46.779Z,29.16
2022-08-27T12:03:21.066Z,28.27
2022-08-27T12:06:05.975Z,26.68
2022-08-27T12:08:35.362Z,27.11
2022-08-27T12:11:10.003Z,26.05
2022-08-27T12:13:59.984Z,28.79
2022-08-27T12:16:55.945Z,27.00
2022-08-27T12:19:57.760Z,27.79
2022-08-27T12:22:59.566Z,27.88
2022-08-27T12:25:30.591Z,27.72
2022-08-27T12:28:03.308Z,27.56
2022-08-27T12:30:33.896Z,28.79
2022-08-27T12:33:24.123Z,30.05
2022-08-27T12:35:52.385Z,31.03
2022-08-27T12:38:43.774Z,28.51
2022-08-27T12:41:44.213Z,29.85
2022-08-27T12:44:23.692Z,28.75
2022-08-27T12:47:08.259Z,28.29
2022-08-27T12:49:59.603Z,29.10
2022-08-27T12:53:12.847Z,27.97
2022-08-27T12:56:00.218Z,29.43
2022-08-27T12:59:17.044Z,27.41
2022-08-27T13:02:06.293Z,26.46
2022-08-27T13:04:37.177Z,25.93
2022-08-27T13:07:05.151Z,26.15
2022-08-27T13:09:35.199Z,25.62
2022-08-27T13:12:05.187Z,24.37
2022-08-27T13:14:42.153Z,25.85
2022-08-27T13:17:17.800Z,26.36
2022-08-27T13:19:57.234Z,27.93
2022-08-27T13:22:38.910Z,26.79
2022-08-27T13:25:07.598Z,26.35
2022-08-27T13:27:36.410Z,26.97
2022-08-27T13:30:07.651Z,28.01
2022-08-27T13:32:36.431Z,28.08
2022-08-27T13:35:04.713Z,30.24
2022-08-27T13:37:35.444Z,28.22
2022-08-27T13:40:03.546Z,28.96
2022-08-27T13:42:31.658Z,29.79
2022-08-27T13:45:04.234Z,31.01
2022-08-27T13:47:32.114Z,32.00
2022-08-27T13:50:08.823Z,31.64
2022-08-27T13:52:58.006Z,31.50
2022-08-27T13:55:25.913Z,32.18
2022-08-27T13:57:53.709Z,31.59
2022-08-27T14:00:27.212Z,31.70
2022-08-27T14:02:55.488Z,31.72
2022-08-27T14:05:23.738Z,32.29
2022-08-27T14:07:57.809Z,31.94
2022-08-27T14:10:34.332Z,31.95
2022-08-27T14:13:06.227Z,32.27
2022-08-27T14:15:38.551Z,32.71
2022-08-27T14:18:08.590Z,32.42
2022-08-27T14:20:37.168Z,32.37
2022-08-27T14:23:05.232Z,32.91
2022-08-27T14:25:34.715Z,33.22
2022-08-27T14:28:02.652Z,34.02
2022-08-27T14:30:31.562Z,33.96
2022-08-27T14:33:00.593Z,34.59
2022-08-27T14:35:29.186Z,36.79
2022-08-27T14:37:56.836Z,38.88
2022-08-27T14:40:24.484Z,41.97
2022-08-27T14:42:52.784Z,42.50
2022-08-27T14:45:21.007Z,43.56
2022-08-27T14:47:48.610Z,46.44
2022-08-27T14:50:16.499Z,46.40
2022-08-27T14:52:44.610Z,49.87
2022-08-27T14:55:13.876Z,48.91
2022-08-27T14:57:41.806Z,46.53
2022-08-27T15:00:10.276Z,50.15
2022-08-27T15:02:45.162Z,51.43
2022-08-27T15:05:18.156Z,49.16
2022-08-27T15:07:47.352Z,47.54
2022-08-27T15:10:15.142Z,49.31
2022-08-27T15:12:42.804Z,50.84
2022-08-27T15:15:10.818Z,52.12
2022-08-27T15:17:38.441Z,51.40
2022-08-27T15:20:09.056Z,51.12
2022-08-27T15:22:40.187Z,53.69
2022-08-27T15:25:11.874Z,54.89
2022-08-27T15:27:39.783Z,52.54
2022-08-27T15:30:10.092Z,55.38
2022-08-27T15:32:41.734Z,57.31
2022-08-27T15:35:12.598Z,57.87
2022-08-27T15:37:41.315Z,57.49
2022-08-27T15:40:10.653Z,58.10
2022-08-27T15:42:38.648Z,58.96
2022-08-27T15:45:07.100Z,56.54
2022-08-27T15:47:35.763Z,55.35
2022-08-27T15:50:03.596Z,52.42
2022-08-27T15:52:40.388Z,52.24
2022-08-27T15:55:22.815Z,50.44
2022-08-27T15:57:50.639Z,49.99
2022-08-27T16:00:18.908Z,53.60
2022-08-27T16:02:47.023Z,50.82
2022-08-27T16:05:15.047Z,49.54
2022-08-27T16:07:42.800Z,48.63
2022-08-27T16:10:11.853Z,48.58
2022-08-27T16:12:39.467Z,48.09
2022-08-27T16:15:07.889Z,49.20
2022-08-27T16:17:35.749Z,48.75
2022-08-27T16:20:04.431Z,49.13
2022-08-27T16:22:32.071Z,50.01
2022-08-27T16:25:00.133Z,49.79
2022-08-27T16:27:27.713Z,49.48
2022-08-27T16:29:55.519Z,50.46
2022-08-27T16:32:25.759Z,51.60
2022-08-27T16:34:55.494Z,54.77
2022-08-27T16:37:24.897Z,56.35
2022-08-27T16:39:53.903Z,53.52
2022-08-27T16:42:21.689Z,52.00
2022-08-27T16:44:49.372Z,50.31
2022-08-27T16:47:16.957Z,49.21
2022-08-27T16:50:03.001Z,48.79
2022-08-27T16:52:31.133Z,49.45
2022-08-27T16:55:00.281Z,49.73
2022-08-27T16:57:27.870Z,51.09
2022-08-27T16:59:56.028Z,51.69
2022-08-27T17:02:30.229Z,52.82
2022-08-27T17:05:17.334Z,51.58
2022-08-27T17:07:49.082Z,50.60
2022-08-27T17:10:18.487Z,50.36
2022-08-27T17:12:47.288Z,51.00
2022-08-27T17:15:17.485Z,50.22
2022-08-27T17:17:46.640Z,50.96
2022-08-27T17:20:15.260Z,52.38
2022-08-27T17:22:43.564Z,54.10
2022-08-27T17:25:11.169Z,53.92
2022-08-27T17:27:38.713Z,55.85
2022-08-27T17:30:06.950Z,57.10
2022-08-27T17:32:37.489Z,57.10
2022-08-27T17:35:06.655Z,55.71
2022-08-27T17:37:34.607Z,58.20
2022-08-27T17:40:02.376Z,59.79
2022-08-27T17:42:31.231Z,59.89
2022-08-27T17:44:58.947Z,60.59
2022-08-27T17:47:27.078Z,61.31
2022-08-27T17:49:54.727Z,61.52
2022-08-27T17:52:22.570Z,63.29
2022-08-27T17:54:56.344Z,63.81
2022-08-27T17:57:29.549Z,63.18
2022-08-27T18:00:09.234Z,62.50
2022-08-27T18:02:39.267Z,63.19
2022-08-27T18:05:08.891Z,62.64
2022-08-27T18:07:39.838Z,61.69
2022-08-27T18:10:09.649Z,63.76
2022-08-27T18:12:37.188Z,64.38
2022-08-27T18:15:29.790Z,63.21
2022-08-27T18:17:58.265Z,62.81
2022-08-27T18:20:26.967Z,63.31
2022-08-27T18:22:54.795Z,61.66
2022-08-27T18:25:25.027Z,61.12
2022-08-27T18:27:54.850Z,61.41
2022-08-27T18:30:22.789Z,61.84
2022-08-27T18:32:50.569Z,62.55
2022-08-27T18:35:20.263Z,63.05
2022-08-27T18:37:48.000Z,65.30
2022-08-27T18:40:16.506Z,65.61
2022-08-27T18:42:44.334Z,65.71
2022-08-27T18:45:16.009Z,65.99
2022-08-27T18:47:43.861Z,65.23
2022-08-27T18:50:17.737Z,66.75
2022-08-27T18:52:46.616Z,67.56
2022-08-27T18:55:16.469Z,68.42
2022-08-27T18:57:44.341Z,69.14
2022-08-27T19:00:13.511Z,68.88
2022-08-27T19:02:41.392Z,67.56
2022-08-27T19:05:09.720Z,68.40
2022-08-27T19:07:37.900Z,66.81
2022-08-27T19:10:06.350Z,67.63
2022-08-27T19:12:34.256Z,70.08
2022-08-27T19:15:04.734Z,70.60
2022-08-27T19:17:33.417Z,69.79
2022-08-27T19:20:01.145Z,70.32
2022-08-27T19:22:30.851Z,69.75
2022-08-27T19:24:58.613Z,69.52
2022-08-27T19:27:27.665Z,70.51
2022-08-27T19:29:56.184Z,71.49
2022-08-27T19:32:23.799Z,71.57
2022-08-27T19:34:51.434Z,72.37
2022-08-27T19:37:21.746Z,73.25
2022-08-27T19:39:49.459Z,73.64
2022-08-27T19:42:17.269Z,74.39
2022-08-27T19:44:45.599Z,73.92
2022-08-27T19:47:14.191Z,73.17
2022-08-27T19:49:45.054Z,73.85
2022-08-27T19:52:12.948Z,73.14
2022-08-27T19:54:56.831Z,71.93
2022-08-27T19:57:28.240Z,72.04
2022-08-27T19:59:55.817Z,72.44
2022-08-27T20:02:23.349Z,72.33
2022-08-27T20:05:14.188Z,70.70
2022-08-27T20:07:38.509Z,70.26
2022-08-27T20:10:08.130Z,70.93
2022-08-27T20:12:37.217Z,71.47
2022-08-27T20:15:06.459Z,72.69
2022-08-27T20:17:35.665Z,73.08
2022-08-27T20:20:04.493Z,72.38
2022-08-27T20:22:32.496Z,71.99
2022-08-27T20:25:00.125Z,71.47
2022-08-27T20:27:27.749Z,71.54
2022-08-27T20:29:56.105Z,72.25
2022-08-27T20:32:29.698Z,73.41
2022-08-27T20:34:58.536Z,73.79
2022-08-27T20:37:26.304Z,74.50
2022-08-27T20:39:54.141Z,75.41
2022-08-27T20:42:21.740Z,75.90
2022-08-27T20:44:49.502Z,75.78
2022-08-27T20:47:17.130Z,75.52
2022-08-27T20:49:45.091Z,75.52
2022-08-27T20:52:13.148Z,76.53
2022-08-27T20:54:41.011Z,76.88
2022-08-27T20:57:09.079Z,76.74
2022-08-27T20:59:56.109Z,75.33
2022-08-27T21:02:25.349Z,75.59
2022-08-27T21:04:53.161Z,76.34
2022-08-27T21:07:21.180Z,77.35
2022-08-27T21:09:57.193Z,77.47
2022-08-27T21:12:26.577Z,76.99
2022-08-27T21:14:56.277Z,77.15
2022-08-27T21:17:26.629Z,77.41
2022-08-27T21:19:54.274Z,77.16
2022-08-27T21:22:22.264Z,77.88
2022-08-27T21:24:49.904Z,78.20
2022-08-27T21:27:18.123Z,78.80
2022-08-27T21:29:45.746Z,78.99
2022-08-27T21:32:14.423Z,77.75
2022-08-27T21:34:42.313Z,77.44
2022-08-27T21:37:11.632Z,77.85
2022-08-27T21:39:40.107Z,78.34
2022-08-27T21:42:08.228Z,79.46
2022-08-27T21:44:36.175Z,78.31
2022-08-27T21:47:03.989Z,78.33
2022-08-27T21:49:32.710Z,77.70
2022-08-27T21:52:01.027Z,77.41
2022-08-27T21:54:30.165Z,77.64
2022-08-27T21:56:57.863Z,78.36
2022-08-27T21:59:25.388Z,79.84
2022-08-27T22:02:00.213Z,80.45
2022-08-27T22:04:29.780Z,80.49
2022-08-27T22:06:59.606Z,80.79
2022-08-27T22:09:27.536Z,80.20
2022-08-27T22:11:56.334Z,80.10
2022-08-27T22:14:24.145Z,79.91
2022-08-27T22:16:51.996Z,79.42
2022-08-27T22:19:19.816Z,79.64
2022-08-27T22:21:47.556Z,78.40
2022-08-27T22:24:15.204Z,78.99
2022-08-27T22:26:43.033Z,79.96
2022-08-27T22:29:10.717Z,79.14
2022-08-27T22:31:39.677Z,78.79
2022-08-27T22:34:08.261Z,78.01
2022-08-27T22:36:42.523Z,78.38
2022-08-27T22:39:10.072Z,77.26
2022-08-27T22:41:37.944Z,76.74
2022-08-27T22:44:09.603Z,77.42
2022-08-27T22:46:37.199Z,77.73
2022-08-27T22:49:04.894Z,77.44
2022-08-27T22:51:32.502Z,76.88
2022-08-27T22:54:00.067Z,76.38
2022-08-27T22:56:27.627Z,77.45
2022-08-27T22:58:55.290Z,78.53
2022-08-27T23:01:22.926Z,78.60
2022-08-27T23:03:50.594Z,78.39
2022-08-27T23:06:18.240Z,76.58
2022-08-27T23:08:45.944Z,76.15
2022-08-27T23:11:13.582Z,76.50
2022-08-27T23:13:41.308Z,77.69
2022-08-27T23:16:11.909Z,77.58
2022-08-27T23:18:40.773Z,77.89
2022-08-27T23:21:09.600Z,77.96
2022-08-27T23:23:37.426Z,77.55
2022-08-27T23:26:24.069Z,76.56
2022-08-27T23:31:19.542Z,76.36
2022-08-27T23:33:47.097Z,76.14
2022-08-27T23:36:14.731Z,76.89
2022-08-27T23:38:42.618Z,77.18
2022-08-27T23:41:10.721Z,77.20
2022-08-27T23:43:38.693Z,77.77
2022-08-27T23:46:06.240Z,78.08
2022-08-27T23:48:33.871Z,79.24
2022-08-27T23:51:01.559Z,77.64
2022-08-27T23:53:29.184Z,79.34
2022-08-27T23:55:56.676Z,77.85
2022-08-27T23:58:24.633Z,77.01
